Artem Skavysh

Ojeador - Dinamo Minsk
20 Nov 2027
Sábado
Continuar

Personalidad

Adaptabilidad (15) Ambición (13) Controversia (1) Lealtad (18) Presión (17) Profesionalismo (13) Deportividad (7) Temperamento (12)

Perfil

Estilo de dirección Democrático
Licencia Continental C
Determinación 11
Gestión de personas 5
Motivación 5
Disciplina 4
Satisfacción laboral
100%
Fatiga
0%
Cargo Ojeador
Salario 50.1K p/s
Contrato 14.03.2028

Rendimiento

Comportamiento Bueno
Efectividad del entrenamiento
36%
Desarrollo de jugadores
45%
Prevención de lesiones
20%
Implementación táctica
30%

Eventos recientes

Evaluó a un jugador ahora
Asistió a una reunión de captación ahora
Asistió a una reunión de captación ahora
Recomendó un objetivo de fichaje ahora
Recomendó un objetivo de fichaje ahora
Evaluó a un jugador ahora
Evaluó a un jugador ahora
Evaluó a un jugador 7d atrás

Actualmente siguiendo

163
Jugador Club Estado Habilidad Confianza Observado Última observación Último voto
Vladislav Sarveli Nizhniy Novgorod Activo 110 / 109 40% 3 19.11.2027 -
Valentín Quevedo Colegiales Activo 96 / 114 40% 1 19.11.2027 -
Brian Mansilla Akhmat Grozny Activo 120 / 125 40% 6 18.11.2027 -
Kelvin Flórez Junior Activo 128 / 115 40% 1 18.11.2027 -
Hazem Mastouri Nizhniy Novgorod Activo 108 / 108 40% 2 17.11.2027 -
Nicolás Sosa Racing Activo 123 / 116 40% 4 16.11.2027 -
Vladimir Khubulov Dinamo Makhachkala Activo 112 / 107 40% 2 16.11.2027 -
Carlos Gugenheim Almirante Brown Activo 101 / 113 40% 4 15.11.2027 -
Armindo Sieb OB Activo 131 / 120 40% 1 15.11.2027 -
Gamid Agalarov Dinamo Makhachkala Activo 106 / 114 40% 2 14.11.2027 -
Edarlyn Reyes Arsenal Tula Activo 116 / 106 40% 1 14.11.2027 -
François Kamano Sochi Activo 115 / 118 40% 2 13.11.2027 -
Alejandro Cantero Huesca Activo 109 / 125 40% 1 13.11.2027 -
Chinonso Offor Baltika Activo 113 / 111 40% 1 12.11.2027 -
Luighi Palmeiras Activo 100 / 120 40% 1 12.11.2027 -
Vladislav Shitov Krylya Sovetov Activo 110 / 113 40% 4 11.11.2027 -
Kamran Aliev SKA Khabarovsk Activo 109 / 107 40% 2 11.11.2027 -
Jonathan Okoronkwo Torpedo Moscow Activo 115 / 108 40% 1 10.11.2027 -
Fabricio Rojas Gimnasia y Tiro Activo 112 / 105 40% 1 10.11.2027 -
Erik Flataker AIK Activo 121 / 110 40% 2 09.11.2027 -
Mohammed Sofo San Jose Earthquakes Activo 122 / 103 40% 1 09.11.2027 -
Camilo Machado Madryn Activo 95 / 105 40% 3 08.11.2027 -
Jonatan Torres Cerro Porteno Activo 118 / 114 40% 1 08.11.2027 -
Lucas Carrizo Lanús Activo 100 / 109 40% 3 05.11.2027 -
Luca Franco Arsenal Activo 97 / 115 40% 2 03.11.2027 -
Dennis Gjengaar Valerenga Activo 128 / 107 40% 3 03.11.2027 -
Flamarion Pakhtakor Activo 116 / 117 40% 1 01.11.2027 -
Timur Suleimanov Rostov Activo 111 / 121 40% 1 31.10.2027 -
Yegor Golenkov Rostov Activo 114 / 118 40% 2 27.10.2027 -
Cristian Olivera Grêmio Activo 142 / 135 40% 1 27.10.2027 -
Chinedu Geoffrey Krylya Sovetov Activo 112 / 116 40% 2 25.10.2027 -
Mohamed Konaté Akhmat Grozny Activo 118 / 111 40% 1 23.10.2027 -
Vyacheslav Grulev Nizhniy Novgorod Activo 109 / 118 40% 1 23.10.2027 -
Maksim Samorodov Akhmat Grozny Activo 125 / 127 40% 1 22.10.2027 -
Tenton Yenne Baltika Activo 115 / 113 40% 1 21.10.2027 -
Brayan Gil Baltika Activo 130 / 127 40% 1 20.10.2027 -
Mikhail Ignatov Sochi Activo 117 / 115 40% 2 17.10.2027 -
Jhon Murillo America de Cali Activo 116 / 123 40% 2 15.10.2027 -
Alexandr Rudenko Lokomotiv Moscow Activo 121 / 120 40% 1 15.10.2027 -
Lucas Ríos Atlanta Activo 131 / 116 40% 2 14.10.2027 -
Matías Tissera Instituto Activo 123 / 120 40% 1 14.10.2027 -
Clemente Montes Universidad Catolica Activo 118 / 126 40% 3 13.10.2027 -
Georgy Melkadze Akhmat Grozny Activo 110 / 115 40% 1 13.10.2027 -
Mathias Grundetjern Stabaek Activo 102 / 114 40% 3 11.10.2027 -
German Onugkha Rodina Activo 128 / 121 40% 2 06.10.2027 -
Blas Armoa Gimnasia y Esgrima Activo 107 / 116 40% 2 30.09.2027 -
Slobodan Tedić Akron Activo 118 / 108 40% 1 30.09.2027 -
Lucio Castillo Colegiales Activo 104 / 107 40% 1 29.09.2027 -
Javier Martínez Almirante Brown Activo 98 / 104 40% 2 28.09.2027 -
Matija Popović Chaika Activo 109 / 112 40% 1 26.09.2027 -
Federico Álvarez Atlanta Activo 98 / 100 40% 1 25.09.2027 -
Juan David Rueda Alianza Petrolera Activo 95 / 109 40% 1 23.09.2027 -
Marcos Camarda Santiago Wanderers Activo 111 / 111 40% 1 21.09.2027 -
Yegor Kortsov Dinamo Brest Activo 119 / 109 40% 1 15.09.2027 Más información
Douglas Augusto Baltika Activo 141 / 134 40% 1 16.08.2027 -
Maximiliano Ribero Central Norte Negociando 116 / 119 40% 1 16.08.2027 -
Elías Contreras Morón Negociando 98 / 109 40% 1 26.07.2027 -
Doğucan Haspolat Westerlo Activo 140 / 122 40% 1 20.07.2027 -
Julio Alonso Huesca Activo 117 / 129 40% 1 20.07.2027 -
Eldar Ćivić Baltika Activo 115 / 122 40% 2 05.07.2027 -
Temirkan Sundukov Dinamo Makhachkala Activo 112 / 115 40% 2 05.07.2027 -
Evgeniy Shevchenko Slavia Mozyr Informe listo 97 / 99 62% 1 05.07.2027 -
Josh Neufville Bradford City Activo 121 / 111 40% 2 04.07.2027 -
Júlio Romão Akhmat Grozny Activo 116 / 115 40% 1 04.07.2027 -
Nikolay Giorgobiani Fakel Activo 107 / 108 40% 2 02.07.2027 -
Alexey Mironov Rostov Activo 119 / 121 40% 2 01.07.2027 -
Stefan Lončar Akron Activo 110 / 117 40% 1 30.06.2027 -
Kirill Pechenin Krylya Sovetov Activo 120 / 119 40% 1 29.06.2027 -
Mario Ćurić Torpedo Moscow Activo 111 / 112 40% 2 28.06.2027 -
Inti López River Plate Activo 111 / 96 40% 2 15.06.2027 -
Temur Odilov Avangard Activo 68 / 77 40% 1 15.06.2027 -
Mikhail Gordeychuk Niva Activo 91 / 96 62% 1 14.06.2027 Aprobar
Andrea Chukanov Yenisey Negociando 105 / 102 40% 1 12.06.2027 -
Miroslav Bogosavac Akhmat Grozny Activo 113 / 118 40% 1 12.06.2027 -
Brendan Wiredu Plymouth Argyle Activo 123 / 118 40% 4 10.06.2027 -
Daniil Penchikov Arsenal Tula Activo 110 / 104 40% 2 08.06.2027 -
Khetag Khosonov Akron Activo 117 / 110 40% 1 08.06.2027 -
Cristian Peñate Barranquilla Perdido 98 / 93 40% 1 08.06.2027 -
Yegor Kuznetsov Rubin Activo 56 / 63 40% 1 08.06.2027 -
Léo Cordeiro Ural Activo 107 / 108 40% 6 06.06.2027 -
Alexandr Goryachkin Kolomna Activo 72 / 73 40% 2 06.06.2027 -
Alexey Berdnikov Chelyabinsk Activo 90 / 97 40% 2 04.06.2027 -
Andrey Langovich Rostov Activo 124 / 122 40% 2 04.06.2027 -
Vladislav Kamilov Ufa Activo 110 / 100 40% 3 03.06.2027 -
Vladislav Masternoy SKA Khabarovsk Activo 93 / 100 40% 1 03.06.2027 -
Jhon Aponza Boca Juniors Activo 120 / 117 40% 1 03.06.2027 -
Dmitry Prokhorov Rubin Activo 72 / 73 40% 2 02.06.2027 -
Edison Gruezo Guadalajara Activo 115 / 103 40% 1 02.06.2027 -
Alexandr Troshechkin Rotor Activo 98 / 105 40% 1 01.06.2027 -
Andrey Ivlev Nizhniy Novgorod Activo 105 / 121 40% 2 31.05.2027 -
Mathis Jangeal Famalicao Activo 109 / 102 40% 3 30.05.2027 -
Lautaro Gutiérrez Girona Activo 89 / 106 40% 1 30.05.2027 -
Vyacheslav Yakimov Fakel Activo 102 / 107 40% 1 28.05.2027 -
Vadim Tsygankov Spartak Moscow Activo 67 / 67 40% 2 26.05.2027 -
Kamil Ibragimov Volga Activo 98 / 98 40% 2 25.05.2027 -
David Gagua Chaika Activo 74 / 80 40% 2 23.05.2027 -
Denis Chuprunov Nizhniy Novgorod Activo 70 / 70 40% 2 23.05.2027 -
Vladis Emmersón Yenisey Activo 99 / 103 40% 2 23.05.2027 -
Aslan Aushev Metallurg Activo 52 / 63 40% 1 21.05.2027 -
Nazar Makeev Akron Activo 68 / 67 40% 1 21.05.2027 -
Vladislav Malkevich Ural Activo 102 / 100 40% 3 19.05.2027 -
Maxime Sivis Orenburg Activo 109 / 115 40% 3 18.05.2027 -
Alexandr Ektov Nizhniy Novgorod Activo 106 / 113 40% 1 18.05.2027 -
Dominik Oroz Krylya Sovetov Activo 116 / 112 40% 2 16.05.2027 -
Victor Melekhin Rostov Activo 115 / 125 40% 1 15.05.2027 -
Andrey Domotsev Mashuk Activo 83 / 85 40% 1 15.05.2027 -
Ruslan Myalkovskiy Lokomotiv Moscow Activo 98 / 102 40% 1 13.05.2027 -
Naledi Hlongwane Heracles Activo 96 / 102 40% 1 13.05.2027 -
Gleb Shevchenko Torpedo Moscow Activo 111 / 106 40% 4 12.05.2027 -
Darko Todorović Fakel Activo 121 / 114 40% 1 09.05.2027 -
Nikolay Rasskazov Krylya Sovetov Activo 113 / 113 40% 1 09.05.2027 -
Edgardo Fariña Nizhniy Novgorod Activo 111 / 115 40% 1 08.05.2027 -
Fanil Sungatulin Ural Activo 117 / 110 40% 4 07.05.2027 -
Maxim Nenakhov Lokomotiv Moscow Activo 123 / 120 40% 1 07.05.2027 -
Sergey Guzyuk Strogino Activo 60 / 66 40% 1 07.05.2027 -
Maxim Mitskevich Textilschik Activo 70 / 71 40% 1 07.05.2027 -
Marat Bokoev Akron Activo 122 / 121 40% 1 04.05.2027 -
Denil Maldonado Rubin Activo 120 / 119 40% 1 03.05.2027 -
Ilja Zhigulev Chernomorets Activo 100 / 101 40% 3 02.05.2027 -
Konstantin Kovalev Volga Activo 97 / 96 40% 1 02.05.2027 -
Igor Vujačić Rubin Activo 118 / 120 40% 2 01.05.2027 -
Danila Boiko Nosta Activo 60 / 65 40% 2 30.04.2027 -
Egor Yuschenko Bumprom Gomel Activo 77 / 83 40% 1 26.04.2027 -
Kita Foullah Edifice Activo 72 / 80 40% 1 26.04.2027 -
José Mendes Sporting CP Activo 82 / 85 40% 1 24.04.2027 -
Jah-Mason Telusson Olympique de Marseille Activo 77 / 101 40% 1 24.04.2027 -
Dilan Neves Benfica Activo 84 / 80 40% 1 22.04.2027 -
Timur Kim Arsenal Tula Activo 55 / 59 40% 1 22.04.2027 -
Evgeny Kharin Ural Activo 105 / 102 40% 1 22.04.2027 -
Maxim Mukhin Rostov Activo 113 / 113 40% 1 19.04.2027 -
David Shavlokhov SKA Khabarovsk Activo 92 / 99 40% 2 17.04.2027 -
Houssem Mrezigue Dinamo Makhachkala Activo 118 / 121 40% 2 17.04.2027 -
Bojan Dimoski Akron Activo 99 / 104 40% 1 16.04.2027 -
Alexandr Soldatenkov Sochi Activo 113 / 117 40% 1 15.04.2027 -
Stanislav Magkeev Fakel Activo 113 / 107 40% 2 13.04.2027 -
Andrés Alarcón Dinamo Makhachkala Activo 119 / 114 40% 1 13.04.2027 -
Sven Karič Nizhniy Novgorod Activo 119 / 119 40% 1 12.04.2027 -
Nikita Pechenkin Sokol Activo 105 / 99 40% 1 09.04.2027 -
Mamadou Maïga Nizhniy Novgorod Activo 110 / 111 40% 1 09.04.2027 -
Kostiantyn Kvas Nyva Activo 87 / 83 40% 1 09.04.2027 -
Kirill Malyarov Shinnik Activo 102 / 100 40% 1 07.04.2027 -
Markus Jensen Nacional Activo 114 / 112 40% 1 06.04.2027 -
Nikita Kakkoev Nizhniy Novgorod Activo 112 / 117 40% 1 04.04.2027 -
Nikita Kotin Shinnik Activo 89 / 92 40% 1 02.04.2027 -
Ítalo Ural Activo 113 / 107 40% 2 01.04.2027 -
Nemanja Stojić Sochi Activo 120 / 119 40% 1 31.03.2027 -
Andrey Solodukhin KAMAZ Activo 80 / 76 40% 2 30.03.2027 -
Justin Clarke Everton Activo 84 / 94 40% 1 30.03.2027 -
Jordan Gabriel Port Vale Activo 114 / 102 40% 1 29.03.2027 -
Miloš Brnović Arsenal Tula Activo 116 / 116 40% 1 29.03.2027 -
Artem Makarchuk Sochi Activo 118 / 109 40% 1 26.03.2027 -
Igor Konovalov Chernomorets Activo 105 / 98 40% 1 26.03.2027 -
Eduard Valiakhmetov Neftekhimik Activo 100 / 99 40% 1 24.03.2027 -
Ilja Vorontsov Kolomna Activo 58 / 64 40% 1 24.03.2027 -
Gustavo Ferreira Benfica Activo 80 / 80 40% 1 24.03.2027 -
Kirill Cheburakov Rostov Activo 72 / 82 40% 1 23.03.2027 -
Yannik Wagner Heidenheim Activo 99 / 113 40% 1 23.03.2027 -
Shunsuke Saito Westerlo Activo 102 / 105 40% 1 21.03.2027 -
Robert Mejía Orenburg Activo 116 / 113 40% 1 18.03.2027 -
Amur Balkizov Kaluga Activo 75 / 80 40% 1 18.03.2027 -
Rival Gumerov Rubin Activo 56 / 62 40% 1 17.03.2027 -
Nikita Bylinkin Slutsk Activo 75 / 88 62% 1 10.08.2026 Aprobar
Carlos Moreno Pachuca Activo 128 / 121 40% 1 01.08.2026 -